Airfield :
LOGIN :

Register | Disclaimer

   EN    FR    IT 

 










Legend :    VFR   Marginal VFR   IFR   Intensive IFR   Very Intensive IFR
Visi :
Ceiling :
>= 8 km
>= 3000ft
5 to 8 km
1000 to 3000 ft
1500m to 5 km
500 to 1000 ft
800 to 1500m
200 to 500 ft
< 800m
< 200 ft
Symbols :   Thunderstorms  Fog  Heavy snow  Heavy precipitations  Wind > 20 kt
SIGMETs :     Misc.  Thunderstorms  Icing  Turbulence  Mountain Waves  Volcanic Ashes






- Airport Elevation : 963 ft
- IATA code : TGM


LRTM - Transilvania Târgu Mureş Int.

CURRENT METAR :
  • 280330Z AUTO 08004KT 9999 -RA FEW055/// OVC075/// 15/14 Q1017

EXPIRED METARs :
  • 280300Z AUTO 09003KT 9999 BKN060/// BKN075/// 15/14 Q1017 RERA
  • 280230Z AUTO 09003KT 9999 -SHRA BKN055/// 16/14 Q1017
  • 280200Z AUTO 06004KT 9999 BKN060/// 16/14 Q1017 RERA
  • 280130Z AUTO 07004KT 8000 -RA OVC065/// 16/14 Q1017
  • 280100Z AUTO 08004KT 9999 -DZ BKN065/// 16/14 Q1017

TAF TAF LRTM
Valid from the 28 at 03:00 until the 28 at 12:00 UTC


280200Z 2803/2812 VRB04KT 9999 BKN040
TEMPO 2803/2806 5000 -RADZ BR BKN010 OVC030
PROB40
TEMPO 2806/2810 5000 -SHRA BKN010 SCT030CB



MET'MAP, your aeronautical weather chart ! - Copyright ORBIFLY December 2007 - Disclaimer

ORBIFLY MET'MAP TEAM :

Programming & Development : Alexandra Zaïnal
Concept & original design : Baudouin d'Aumeries
Assistance for programming : Marc-Olivier Méhu
Technical & hardware support : Manuel Goepfert

Contact : metmap@orbifly.com




SOURCES & CREDITS :

   NOAA